ENSG/SOG METAR and TAF weather

Enter ICAO airport designator
Station Type Date Time Source
ENSG METAR 2019/10/21 19:50 UTC NOAA

ENSG 211950Z 24008KT 9999 BKN030 04/00 Q1012 RMK WIND 3806FT 22018KT


Station Type Date Time Source
ENSG Decoded METAR 2019/10/21 19:50 UTC NOAA

Sogndal / Haukasen, Norway (ENSG) 61-09N 007-08E 497M
Oct 21, 2019 - 03:50 PM EDT / 2019.10.21 1950 UTC
Wind: from the WSW (240 degrees) at 9 MPH (8 KT):0
Visibility: greater than 7 mile(s):0
Sky conditions: mostly cloudy
Temperature: 39 F (4 C)
Dew Point: 32 F (0 C)
Relative Humidity: 75%
Pressure (altimeter): 29.88 in. Hg (1012 hPa)
ob: ENSG 211950Z 24008KT 9999 BKN030 04/00 Q1012 RMK WIND 3806FT 22018KT
cycle: 20

Station Type Date Time Source
ENSG TAF UTC NOAA

Error!

Example: see airport list